sensor_id;sensor_type;location;lat;lon;timestamp;P1;durP1;ratioP1;P2;durP2;ratioP2
22160;SDS011;49035;48.812;11.762;2024-03-17T00:01:44;16.73;;;8.27;;
22160;SDS011;49035;48.812;11.762;2024-03-17T00:04:09;17.43;;;8.87;;
22160;SDS011;49035;48.812;11.762;2024-03-17T00:06:35;16.33;;;8.67;;
22160;SDS011;49035;48.812;11.762;2024-03-17T00:09:00;14.03;;;8.37;;
22160;SDS011;49035;48.812;11.762;2024-03-17T00:11:31;13.93;;;8.50;;
22160;SDS011;49035;48.812;11.762;2024-03-17T00:13:57;15.07;;;9.27;;
22160;SDS011;49035;48.812;11.762;2024-03-17T00:16:23;13.23;;;7.90;;
22160;SDS011;49035;48.812;11.762;2024-03-17T00:18:49;14.33;;;7.93;;
22160;SDS011;49035;48.812;11.762;2024-03-17T00:21:14;14.67;;;8.67;;
22160;SDS011;49035;48.812;11.762;2024-03-17T00:23:40;16.00;;;8.97;;
22160;SDS011;49035;48.812;11.762;2024-03-17T00:26:06;17.60;;;9.20;;
22160;SDS011;49035;48.812;11.762;2024-03-17T00:28:32;17.73;;;9.17;;
22160;SDS011;49035;48.812;11.762;2024-03-17T00:30:57;17.70;;;9.53;;
22160;SDS011;49035;48.812;11.762;2024-03-17T00:33:23;16.00;;;8.83;;
22160;SDS011;49035;48.812;11.762;2024-03-17T00:35:49;16.73;;;8.87;;
22160;SDS011;49035;48.812;11.762;2024-03-17T00:38:15;16.30;;;9.50;;
22160;SDS011;49035;48.812;11.762;2024-03-17T00:40:40;15.83;;;9.17;;
22160;SDS011;49035;48.812;11.762;2024-03-17T00:43:06;19.33;;;8.67;;
22160;SDS011;49035;48.812;11.762;2024-03-17T00:45:32;15.80;;;8.60;;
22160;SDS011;49035;48.812;11.762;2024-03-17T00:47:58;17.67;;;9.80;;
22160;SDS011;49035;48.812;11.762;2024-03-17T00:50:24;15.40;;;8.80;;
22160;SDS011;49035;48.812;11.762;2024-03-17T00:52:49;18.50;;;9.43;;
22160;SDS011;49035;48.812;11.762;2024-03-17T00:55:15;16.50;;;9.07;;
22160;SDS011;49035;48.812;11.762;2024-03-17T00:57:41;13.83;;;8.07;;
22160;SDS011;49035;48.812;11.762;2024-03-17T01:00:07;12.70;;;8.23;;
22160;SDS011;49035;48.812;11.762;2024-03-17T01:02:36;13.27;;;7.23;;
22160;SDS011;49035;48.812;11.762;2024-03-17T01:05:02;12.93;;;7.53;;
22160;SDS011;49035;48.812;11.762;2024-03-17T01:07:30;17.50;;;8.63;;
22160;SDS011;49035;48.812;11.762;2024-03-17T01:09:56;18.93;;;12.80;;
22160;SDS011;49035;48.812;11.762;2024-03-17T01:12:22;26.40;;;20.10;;
22160;SDS011;49035;48.812;11.762;2024-03-17T01:14:48;24.30;;;15.17;;
22160;SDS011;49035;48.812;11.762;2024-03-17T01:17:13;16.03;;;10.83;;
22160;SDS011;49035;48.812;11.762;2024-03-17T01:19:39;14.30;;;9.47;;
22160;SDS011;49035;48.812;11.762;2024-03-17T01:22:05;12.07;;;7.63;;
22160;SDS011;49035;48.812;11.762;2024-03-17T01:24:30;13.10;;;7.43;;
22160;SDS011;49035;48.812;11.762;2024-03-17T01:26:59;7.90;;;5.47;;
22160;SDS011;49035;48.812;11.762;2024-03-17T01:29:26;12.00;;;7.07;;
22160;SDS011;49035;48.812;11.762;2024-03-17T01:31:52;11.20;;;6.83;;
22160;SDS011;49035;48.812;11.762;2024-03-17T01:34:20;8.63;;;5.40;;
22160;SDS011;49035;48.812;11.762;2024-03-17T01:36:46;12.03;;;7.10;;
22160;SDS011;49035;48.812;11.762;2024-03-17T01:39:13;17.60;;;11.47;;
22160;SDS011;49035;48.812;11.762;2024-03-17T01:41:38;18.50;;;10.77;;
22160;SDS011;49035;48.812;11.762;2024-03-17T01:44:04;15.07;;;9.60;;
22160;SDS011;49035;48.812;11.762;2024-03-17T01:46:30;14.17;;;9.23;;
22160;SDS011;49035;48.812;11.762;2024-03-17T01:48:56;14.87;;;7.53;;
22160;SDS011;49035;48.812;11.762;2024-03-17T01:51:22;8.70;;;5.97;;
22160;SDS011;49035;48.812;11.762;2024-03-17T01:53:48;12.27;;;7.30;;
22160;SDS011;49035;48.812;11.762;2024-03-17T01:56:14;13.00;;;8.10;;
22160;SDS011;49035;48.812;11.762;2024-03-17T01:58:42;13.50;;;8.00;;
22160;SDS011;49035;48.812;11.762;2024-03-17T02:01:09;13.40;;;7.53;;
22160;SDS011;49035;48.812;11.762;2024-03-17T02:03:36;9.37;;;6.03;;
22160;SDS011;49035;48.812;11.762;2024-03-17T02:06:01;6.53;;;4.97;;
22160;SDS011;49035;48.812;11.762;2024-03-17T02:08:27;12.13;;;8.00;;
22160;SDS011;49035;48.812;11.762;2024-03-17T02:10:53;12.00;;;7.93;;
22160;SDS011;49035;48.812;11.762;2024-03-17T02:13:20;16.10;;;8.43;;
22160;SDS011;49035;48.812;11.762;2024-03-17T02:15:47;13.53;;;7.70;;
22160;SDS011;49035;48.812;11.762;2024-03-17T02:18:12;13.90;;;8.40;;
22160;SDS011;49035;48.812;11.762;2024-03-17T02:20:38;20.03;;;10.80;;
22160;SDS011;49035;48.812;11.762;2024-03-17T02:23:20;13.73;;;8.20;;
22160;SDS011;49035;48.812;11.762;2024-03-17T02:25:45;12.30;;;7.83;;
22160;SDS011;49035;48.812;11.762;2024-03-17T02:28:12;15.47;;;8.87;;
22160;SDS011;49035;48.812;11.762;2024-03-17T02:30:38;7.73;;;5.63;;
22160;SDS011;49035;48.812;11.762;2024-03-17T02:33:04;9.87;;;6.43;;
22160;SDS011;49035;48.812;11.762;2024-03-17T02:35:29;18.40;;;9.03;;
22160;SDS011;49035;48.812;11.762;2024-03-17T02:37:55;23.10;;;9.90;;
22160;SDS011;49035;48.812;11.762;2024-03-17T02:40:21;16.30;;;10.03;;
22160;SDS011;49035;48.812;11.762;2024-03-17T02:42:47;20.10;;;10.00;;
22160;SDS011;49035;48.812;11.762;2024-03-17T02:45:13;11.43;;;7.83;;
22160;SDS011;49035;48.812;11.762;2024-03-17T02:47:39;8.37;;;6.10;;
22160;SDS011;49035;48.812;11.762;2024-03-17T02:50:05;8.20;;;5.50;;
22160;SDS011;49035;48.812;11.762;2024-03-17T02:52:31;7.23;;;5.03;;
22160;SDS011;49035;48.812;11.762;2024-03-17T02:54:57;9.70;;;5.60;;
22160;SDS011;49035;48.812;11.762;2024-03-17T02:57:23;9.07;;;5.40;;
22160;SDS011;49035;48.812;11.762;2024-03-17T02:59:50;13.20;;;5.67;;
22160;SDS011;49035;48.812;11.762;2024-03-17T03:02:16;10.77;;;5.40;;
22160;SDS011;49035;48.812;11.762;2024-03-17T03:04:42;7.40;;;5.33;;
22160;SDS011;49035;48.812;11.762;2024-03-17T03:07:08;7.27;;;5.30;;
22160;SDS011;49035;48.812;11.762;2024-03-17T03:09:33;7.27;;;4.77;;
22160;SDS011;49035;48.812;11.762;2024-03-17T03:11:59;7.30;;;5.27;;
22160;SDS011;49035;48.812;11.762;2024-03-17T03:14:27;17.40;;;5.63;;
22160;SDS011;49035;48.812;11.762;2024-03-17T03:16:53;8.27;;;5.53;;
22160;SDS011;49035;48.812;11.762;2024-03-17T03:19:18;9.50;;;6.03;;
22160;SDS011;49035;48.812;11.762;2024-03-17T03:21:44;8.10;;;5.63;;
22160;SDS011;49035;48.812;11.762;2024-03-17T03:24:10;9.03;;;6.03;;
22160;SDS011;49035;48.812;11.762;2024-03-17T03:26:37;10.13;;;5.87;;
22160;SDS011;49035;48.812;11.762;2024-03-17T03:29:03;8.67;;;5.87;;
22160;SDS011;49035;48.812;11.762;2024-03-17T03:31:30;11.57;;;6.57;;
22160;SDS011;49035;48.812;11.762;2024-03-17T03:33:59;7.63;;;5.40;;
22160;SDS011;49035;48.812;11.762;2024-03-17T03:36:28;9.33;;;5.60;;
22160;SDS011;49035;48.812;11.762;2024-03-17T03:38:54;10.83;;;7.10;;
22160;SDS011;49035;48.812;11.762;2024-03-17T03:41:22;11.73;;;6.67;;
22160;SDS011;49035;48.812;11.762;2024-03-17T03:43:48;13.13;;;7.97;;
22160;SDS011;49035;48.812;11.762;2024-03-17T03:46:14;17.87;;;7.73;;
22160;SDS011;49035;48.812;11.762;2024-03-17T03:48:40;12.07;;;7.23;;
22160;SDS011;49035;48.812;11.762;2024-03-17T03:51:06;12.70;;;7.40;;
22160;SDS011;49035;48.812;11.762;2024-03-17T03:53:33;15.20;;;7.70;;
22160;SDS011;49035;48.812;11.762;2024-03-17T03:55:59;16.60;;;8.87;;
22160;SDS011;49035;48.812;11.762;2024-03-17T03:58:31;18.53;;;9.20;;
22160;SDS011;49035;48.812;11.762;2024-03-17T04:01:09;16.37;;;9.03;;
22160;SDS011;49035;48.812;11.762;2024-03-17T04:03:40;25.87;;;9.60;;
22160;SDS011;49035;48.812;11.762;2024-03-17T04:06:06;19.73;;;9.57;;
22160;SDS011;49035;48.812;11.762;2024-03-17T04:08:34;17.40;;;10.33;;
22160;SDS011;49035;48.812;11.762;2024-03-17T04:11:00;23.47;;;10.27;;
22160;SDS011;49035;48.812;11.762;2024-03-17T04:13:28;15.57;;;8.63;;
22160;SDS011;49035;48.812;11.762;2024-03-17T04:15:58;15.13;;;8.47;;
22160;SDS011;49035;48.812;11.762;2024-03-17T04:18:25;21.87;;;10.90;;
22160;SDS011;49035;48.812;11.762;2024-03-17T04:20:54;15.40;;;8.77;;
22160;SDS011;49035;48.812;11.762;2024-03-17T04:23:21;22.50;;;9.13;;
22160;SDS011;49035;48.812;11.762;2024-03-17T04:25:47;17.03;;;8.47;;
22160;SDS011;49035;48.812;11.762;2024-03-17T04:28:13;20.17;;;10.23;;
22160;SDS011;49035;48.812;11.762;2024-03-17T04:30:40;19.40;;;9.37;;
22160;SDS011;49035;48.812;11.762;2024-03-17T04:33:06;21.27;;;10.37;;
22160;SDS011;49035;48.812;11.762;2024-03-17T04:35:35;23.50;;;9.63;;
22160;SDS011;49035;48.812;11.762;2024-03-17T04:38:01;16.50;;;8.93;;
22160;SDS011;49035;48.812;11.762;2024-03-17T04:40:27;21.33;;;9.77;;
22160;SDS011;49035;48.812;11.762;2024-03-17T04:42:52;21.07;;;10.00;;
22160;SDS011;49035;48.812;11.762;2024-03-17T04:45:18;20.97;;;9.53;;
22160;SDS011;49035;48.812;11.762;2024-03-17T04:47:44;21.03;;;9.00;;
22160;SDS011;49035;48.812;11.762;2024-03-17T04:50:09;18.57;;;10.23;;
22160;SDS011;49035;48.812;11.762;2024-03-17T04:52:35;18.33;;;9.43;;
22160;SDS011;49035;48.812;11.762;2024-03-17T04:55:00;23.50;;;8.53;;
22160;SDS011;49035;48.812;11.762;2024-03-17T04:57:26;20.63;;;9.07;;
22160;SDS011;49035;48.812;11.762;2024-03-17T04:59:52;24.30;;;10.07;;
22160;SDS011;49035;48.812;11.762;2024-03-17T05:02:17;24.77;;;10.23;;
22160;SDS011;49035;48.812;11.762;2024-03-17T05:04:43;21.47;;;9.73;;
22160;SDS011;49035;48.812;11.762;2024-03-17T05:07:08;20.13;;;8.87;;
22160;SDS011;49035;48.812;11.762;2024-03-17T05:09:34;20.30;;;9.57;;
22160;SDS011;49035;48.812;11.762;2024-03-17T05:12:00;18.47;;;9.13;;
22160;SDS011;49035;48.812;11.762;2024-03-17T05:14:26;18.57;;;9.50;;
22160;SDS011;49035;48.812;11.762;2024-03-17T05:16:51;29.77;;;12.87;;
22160;SDS011;49035;48.812;11.762;2024-03-17T05:19:17;19.47;;;8.90;;
22160;SDS011;49035;48.812;11.762;2024-03-17T05:21:46;22.57;;;9.23;;
22160;SDS011;49035;48.812;11.762;2024-03-17T05:24:11;17.27;;;9.13;;
22160;SDS011;49035;48.812;11.762;2024-03-17T05:26:38;20.23;;;10.03;;
22160;SDS011;49035;48.812;11.762;2024-03-17T05:29:03;25.13;;;10.37;;
22160;SDS011;49035;48.812;11.762;2024-03-17T05:31:30;20.03;;;9.97;;
22160;SDS011;49035;48.812;11.762;2024-03-17T05:33:56;19.40;;;9.60;;
22160;SDS011;49035;48.812;11.762;2024-03-17T05:36:22;17.93;;;9.03;;
22160;SDS011;49035;48.812;11.762;2024-03-17T05:38:48;16.73;;;9.57;;
22160;SDS011;49035;48.812;11.762;2024-03-17T05:41:13;20.27;;;10.33;;
22160;SDS011;49035;48.812;11.762;2024-03-17T05:43:39;19.83;;;10.27;;
22160;SDS011;49035;48.812;11.762;2024-03-17T05:48:35;21.43;;;10.40;;
22160;SDS011;49035;48.812;11.762;2024-03-17T05:51:09;20.73;;;10.20;;
22160;SDS011;49035;48.812;11.762;2024-03-17T05:53:36;33.60;;;12.40;;
22160;SDS011;49035;48.812;11.762;2024-03-17T05:56:03;29.37;;;12.83;;
22160;SDS011;49035;48.812;11.762;2024-03-17T05:58:29;41.67;;;15.83;;
22160;SDS011;49035;48.812;11.762;2024-03-17T06:00:55;39.83;;;15.10;;
22160;SDS011;49035;48.812;11.762;2024-03-17T06:03:21;35.30;;;14.00;;
22160;SDS011;49035;48.812;11.762;2024-03-17T06:05:47;41.83;;;14.97;;
22160;SDS011;49035;48.812;11.762;2024-03-17T06:08:13;42.07;;;17.07;;
22160;SDS011;49035;48.812;11.762;2024-03-17T06:10:44;47.00;;;17.17;;
22160;SDS011;49035;48.812;11.762;2024-03-17T06:13:12;47.17;;;15.33;;
22160;SDS011;49035;48.812;11.762;2024-03-17T06:15:40;38.10;;;15.50;;
22160;SDS011;49035;48.812;11.762;2024-03-17T06:18:06;45.87;;;16.23;;
22160;SDS011;49035;48.812;11.762;2024-03-17T06:20:34;39.10;;;14.70;;
22160;SDS011;49035;48.812;11.762;2024-03-17T06:23:00;42.87;;;15.87;;
22160;SDS011;49035;48.812;11.762;2024-03-17T06:25:26;41.07;;;14.73;;
22160;SDS011;49035;48.812;11.762;2024-03-17T06:27:53;47.00;;;17.10;;
22160;SDS011;49035;48.812;11.762;2024-03-17T06:30:18;46.10;;;16.93;;
22160;SDS011;49035;48.812;11.762;2024-03-17T06:32:44;41.40;;;16.97;;
22160;SDS011;49035;48.812;11.762;2024-03-17T06:35:14;42.83;;;17.23;;
22160;SDS011;49035;48.812;11.762;2024-03-17T06:37:40;43.00;;;16.17;;
22160;SDS011;49035;48.812;11.762;2024-03-17T06:40:06;48.33;;;18.37;;
22160;SDS011;49035;48.812;11.762;2024-03-17T06:42:37;54.90;;;19.00;;
22160;SDS011;49035;48.812;11.762;2024-03-17T06:45:03;42.67;;;18.30;;
22160;SDS011;49035;48.812;11.762;2024-03-17T06:47:30;57.85;;;20.50;;
22160;SDS011;49035;48.812;11.762;2024-03-17T06:49:55;51.73;;;21.23;;
22160;SDS011;49035;48.812;11.762;2024-03-17T06:52:21;58.60;;;22.92;;
22160;SDS011;49035;48.812;11.762;2024-03-17T06:54:47;64.22;;;24.20;;
22160;SDS011;49035;48.812;11.762;2024-03-17T06:57:15;64.15;;;22.77;;
22160;SDS011;49035;48.812;11.762;2024-03-17T06:59:41;60.85;;;23.52;;
22160;SDS011;49035;48.812;11.762;2024-03-17T07:02:07;60.03;;;23.40;;
22160;SDS011;49035;48.812;11.762;2024-03-17T07:04:36;51.20;;;21.55;;
22160;SDS011;49035;48.812;11.762;2024-03-17T07:07:01;44.28;;;20.38;;
22160;SDS011;49035;48.812;11.762;2024-03-17T07:09:27;39.07;;;18.13;;
22160;SDS011;49035;48.812;11.762;2024-03-17T07:11:53;40.20;;;18.10;;
22160;SDS011;49035;48.812;11.762;2024-03-17T07:14:18;45.65;;;19.35;;
22160;SDS011;49035;48.812;11.762;2024-03-17T07:16:44;42.75;;;19.42;;
22160;SDS011;49035;48.812;11.762;2024-03-17T07:19:09;43.93;;;18.93;;
22160;SDS011;49035;48.812;11.762;2024-03-17T07:21:35;39.20;;;18.80;;
22160;SDS011;49035;48.812;11.762;2024-03-17T07:24:00;40.53;;;17.50;;
22160;SDS011;49035;48.812;11.762;2024-03-17T07:26:29;38.67;;;17.47;;
22160;SDS011;49035;48.812;11.762;2024-03-17T07:28:55;43.80;;;17.80;;
22160;SDS011;49035;48.812;11.762;2024-03-17T07:31:21;41.90;;;16.33;;
22160;SDS011;49035;48.812;11.762;2024-03-17T07:33:46;32.63;;;15.02;;
22160;SDS011;49035;48.812;11.762;2024-03-17T07:36:13;28.30;;;13.43;;
22160;SDS011;49035;48.812;11.762;2024-03-17T07:38:38;27.55;;;14.02;;
22160;SDS011;49035;48.812;11.762;2024-03-17T07:41:05;24.57;;;13.27;;
22160;SDS011;49035;48.812;11.762;2024-03-17T07:43:33;18.02;;;9.63;;
22160;SDS011;49035;48.812;11.762;2024-03-17T07:46:00;15.10;;;7.90;;
22160;SDS011;49035;48.812;11.762;2024-03-17T07:48:28;10.25;;;6.50;;
22160;SDS011;49035;48.812;11.762;2024-03-17T07:50:57;7.28;;;5.18;;
22160;SDS011;49035;48.812;11.762;2024-03-17T07:53:24;8.60;;;6.10;;
22160;SDS011;49035;48.812;11.762;2024-03-17T07:58:32;10.43;;;5.32;;
22160;SDS011;49035;48.812;11.762;2024-03-17T08:00:59;10.18;;;6.03;;
22160;SDS011;49035;48.812;11.762;2024-03-17T08:03:26;11.05;;;6.07;;
22160;SDS011;49035;48.812;11.762;2024-03-17T08:05:52;13.10;;;7.03;;
22160;SDS011;49035;48.812;11.762;2024-03-17T08:08:18;10.10;;;5.82;;
22160;SDS011;49035;48.812;11.762;2024-03-17T08:10:45;9.88;;;6.53;;
22160;SDS011;49035;48.812;11.762;2024-03-17T08:13:13;10.38;;;6.50;;
22160;SDS011;49035;48.812;11.762;2024-03-17T08:15:46;13.80;;;6.50;;
22160;SDS011;49035;48.812;11.762;2024-03-17T08:18:20;10.15;;;5.57;;
22160;SDS011;49035;48.812;11.762;2024-03-17T08:20:45;8.52;;;5.95;;
22160;SDS011;49035;48.812;11.762;2024-03-17T08:23:14;8.48;;;5.60;;
22160;SDS011;49035;48.812;11.762;2024-03-17T08:25:39;14.07;;;5.35;;
22160;SDS011;49035;48.812;11.762;2024-03-17T08:28:05;9.27;;;6.05;;
22160;SDS011;49035;48.812;11.762;2024-03-17T08:30:34;7.20;;;5.13;;
22160;SDS011;49035;48.812;11.762;2024-03-17T08:33:00;10.85;;;5.97;;
22160;SDS011;49035;48.812;11.762;2024-03-17T08:35:26;8.88;;;5.55;;
22160;SDS011;49035;48.812;11.762;2024-03-17T08:37:52;9.00;;;4.97;;
22160;SDS011;49035;48.812;11.762;2024-03-17T08:40:21;7.85;;;5.80;;
22160;SDS011;49035;48.812;11.762;2024-03-17T08:42:47;9.82;;;5.30;;
22160;SDS011;49035;48.812;11.762;2024-03-17T08:45:13;6.57;;;4.15;;
22160;SDS011;49035;48.812;11.762;2024-03-17T08:47:39;6.85;;;4.97;;
22160;SDS011;49035;48.812;11.762;2024-03-17T08:50:04;8.75;;;4.78;;
22160;SDS011;49035;48.812;11.762;2024-03-17T08:52:33;6.38;;;4.38;;
22160;SDS011;49035;48.812;11.762;2024-03-17T08:54:59;6.03;;;4.07;;
22160;SDS011;49035;48.812;11.762;2024-03-17T08:57:28;6.63;;;3.95;;
22160;SDS011;49035;48.812;11.762;2024-03-17T08:59:53;5.63;;;4.10;;
22160;SDS011;49035;48.812;11.762;2024-03-17T09:02:19;5.47;;;4.38;;
22160;SDS011;49035;48.812;11.762;2024-03-17T09:04:46;5.47;;;3.67;;
22160;SDS011;49035;48.812;11.762;2024-03-17T09:07:12;5.65;;;4.22;;
22160;SDS011;49035;48.812;11.762;2024-03-17T09:09:40;7.13;;;4.30;;
22160;SDS011;49035;48.812;11.762;2024-03-17T09:12:08;6.47;;;3.72;;
22160;SDS011;49035;48.812;11.762;2024-03-17T09:14:34;5.78;;;4.05;;
22160;SDS011;49035;48.812;11.762;2024-03-17T09:17:00;7.10;;;4.28;;
22160;SDS011;49035;48.812;11.762;2024-03-17T09:19:26;8.25;;;3.90;;
22160;SDS011;49035;48.812;11.762;2024-03-17T09:21:54;5.68;;;4.03;;
22160;SDS011;49035;48.812;11.762;2024-03-17T09:24:19;12.50;;;4.25;;
22160;SDS011;49035;48.812;11.762;2024-03-17T09:26:45;5.82;;;3.90;;
22160;SDS011;49035;48.812;11.762;2024-03-17T09:29:12;7.10;;;3.78;;
22160;SDS011;49035;48.812;11.762;2024-03-17T09:31:38;5.82;;;4.60;;
22160;SDS011;49035;48.812;11.762;2024-03-17T09:34:06;6.85;;;4.30;;
22160;SDS011;49035;48.812;11.762;2024-03-17T09:36:32;7.88;;;4.43;;
22160;SDS011;49035;48.812;11.762;2024-03-17T09:38:58;7.75;;;4.47;;
22160;SDS011;49035;48.812;11.762;2024-03-17T09:41:25;5.32;;;3.88;;
22160;SDS011;49035;48.812;11.762;2024-03-17T09:43:55;5.57;;;3.92;;
22160;SDS011;49035;48.812;11.762;2024-03-17T09:46:25;6.88;;;4.60;;
22160;SDS011;49035;48.812;11.762;2024-03-17T09:48:52;6.63;;;4.20;;
22160;SDS011;49035;48.812;11.762;2024-03-17T09:51:22;6.38;;;4.78;;
22160;SDS011;49035;48.812;11.762;2024-03-17T09:53:50;5.82;;;4.20;;
22160;SDS011;49035;48.812;11.762;2024-03-17T09:56:17;5.00;;;4.15;;
22160;SDS011;49035;48.812;11.762;2024-03-17T09:58:44;8.27;;;4.53;;
22160;SDS011;49035;48.812;11.762;2024-03-17T10:01:10;4.85;;;3.83;;
22160;SDS011;49035;48.812;11.762;2024-03-17T10:03:50;6.47;;;4.03;;
22160;SDS011;49035;48.812;11.762;2024-03-17T10:06:20;6.10;;;4.47;;
22160;SDS011;49035;48.812;11.762;2024-03-17T10:11:18;7.35;;;4.47;;
22160;SDS011;49035;48.812;11.762;2024-03-17T10:13:46;5.72;;;4.50;;
22160;SDS011;49035;48.812;11.762;2024-03-17T10:16:25;6.65;;;4.50;;
22160;SDS011;49035;48.812;11.762;2024-03-17T10:21:35;6.20;;;4.60;;
22160;SDS011;49035;48.812;11.762;2024-03-17T10:24:20;8.10;;;4.32;;
22160;SDS011;49035;48.812;11.762;2024-03-17T10:26:48;10.35;;;6.63;;
22160;SDS011;49035;48.812;11.762;2024-03-17T10:29:30;8.63;;;5.55;;
22160;SDS011;49035;48.812;11.762;2024-03-17T10:34:44;9.73;;;4.97;;
22160;SDS011;49035;48.812;11.762;2024-03-17T10:37:11;5.78;;;4.30;;
22160;SDS011;49035;48.812;11.762;2024-03-17T10:39:40;7.32;;;4.15;;
22160;SDS011;49035;48.812;11.762;2024-03-17T10:42:07;6.45;;;4.20;;
22160;SDS011;49035;48.812;11.762;2024-03-17T10:44:40;6.93;;;4.88;;
22160;SDS011;49035;48.812;11.762;2024-03-17T10:47:14;6.15;;;4.50;;
22160;SDS011;49035;48.812;11.762;2024-03-17T10:49:47;6.88;;;4.30;;
22160;SDS011;49035;48.812;11.762;2024-03-17T10:52:17;7.43;;;5.03;;
22160;SDS011;49035;48.812;11.762;2024-03-17T10:54:47;6.65;;;4.35;;
22160;SDS011;49035;48.812;11.762;2024-03-17T10:57:24;6.68;;;4.78;;
22160;SDS011;49035;48.812;11.762;2024-03-17T10:59:52;7.25;;;4.32;;
22160;SDS011;49035;48.812;11.762;2024-03-17T11:02:22;12.90;;;5.35;;
22160;SDS011;49035;48.812;11.762;2024-03-17T11:04:54;6.63;;;4.88;;
22160;SDS011;49035;48.812;11.762;2024-03-17T11:07:21;5.32;;;4.00;;
22160;SDS011;49035;48.812;11.762;2024-03-17T11:09:47;7.88;;;4.72;;
22160;SDS011;49035;48.812;11.762;2024-03-17T11:17:48;6.00;;;4.10;;
22160;SDS011;49035;48.812;11.762;2024-03-17T11:20:21;6.05;;;3.97;;
22160;SDS011;49035;48.812;11.762;2024-03-17T11:22:48;7.40;;;4.20;;
22160;SDS011;49035;48.812;11.762;2024-03-17T11:46:50;5.78;;;4.00;;
22160;SDS011;49035;48.812;11.762;2024-03-17T11:49:20;6.38;;;4.25;;
22160;SDS011;49035;48.812;11.762;2024-03-17T11:51:49;5.25;;;3.90;;
22160;SDS011;49035;48.812;11.762;2024-03-17T11:54:23;6.72;;;4.10;;
22160;SDS011;49035;48.812;11.762;2024-03-17T11:56:52;6.22;;;3.65;;
22160;SDS011;49035;48.812;11.762;2024-03-17T11:59:19;7.03;;;4.07;;
22160;SDS011;49035;48.812;11.762;2024-03-17T12:01:46;4.78;;;3.67;;
22160;SDS011;49035;48.812;11.762;2024-03-17T12:04:15;6.18;;;4.60;;
22160;SDS011;49035;48.812;11.762;2024-03-17T12:06:50;6.85;;;4.50;;
22160;SDS011;49035;48.812;11.762;2024-03-17T12:09:24;5.65;;;4.20;;
22160;SDS011;49035;48.812;11.762;2024-03-17T12:12:04;7.22;;;4.57;;
22160;SDS011;49035;48.812;11.762;2024-03-17T12:14:33;7.00;;;4.40;;
22160;SDS011;49035;48.812;11.762;2024-03-17T12:17:02;6.60;;;4.85;;
22160;SDS011;49035;48.812;11.762;2024-03-17T12:19:29;7.15;;;4.97;;
22160;SDS011;49035;48.812;11.762;2024-03-17T12:21:56;7.05;;;4.28;;
22160;SDS011;49035;48.812;11.762;2024-03-17T12:24:32;6.32;;;4.28;;
22160;SDS011;49035;48.812;11.762;2024-03-17T12:27:00;5.18;;;4.25;;
22160;SDS011;49035;48.812;11.762;2024-03-17T12:29:33;6.78;;;4.90;;
22160;SDS011;49035;48.812;11.762;2024-03-17T12:32:24;5.10;;;4.35;;
22160;SDS011;49035;48.812;11.762;2024-03-17T12:34:51;5.68;;;4.50;;
22160;SDS011;49035;48.812;11.762;2024-03-17T12:37:22;6.95;;;4.30;;
22160;SDS011;49035;48.812;11.762;2024-03-17T12:39:57;5.13;;;4.30;;
22160;SDS011;49035;48.812;11.762;2024-03-17T12:42:25;7.00;;;4.53;;
22160;SDS011;49035;48.812;11.762;2024-03-17T12:44:55;5.25;;;4.22;;
22160;SDS011;49035;48.812;11.762;2024-03-17T12:47:26;6.40;;;4.03;;
22160;SDS011;49035;48.812;11.762;2024-03-17T12:49:53;7.68;;;3.50;;
22160;SDS011;49035;48.812;11.762;2024-03-17T12:52:23;4.13;;;3.72;;
22160;SDS011;49035;48.812;11.762;2024-03-17T12:54:59;4.78;;;3.63;;
22160;SDS011;49035;48.812;11.762;2024-03-17T12:57:45;5.50;;;3.80;;
22160;SDS011;49035;48.812;11.762;2024-03-17T13:00:30;3.70;;;3.30;;
22160;SDS011;49035;48.812;11.762;2024-03-17T13:02:56;8.00;;;4.20;;
22160;SDS011;49035;48.812;11.762;2024-03-17T13:05:23;6.32;;;4.18;;
22160;SDS011;49035;48.812;11.762;2024-03-17T13:07:49;5.22;;;3.55;;
22160;SDS011;49035;48.812;11.762;2024-03-17T13:12:42;5.85;;;3.90;;
22160;SDS011;49035;48.812;11.762;2024-03-17T13:15:09;5.45;;;3.75;;
22160;SDS011;49035;48.812;11.762;2024-03-17T13:17:40;4.32;;;3.83;;
22160;SDS011;49035;48.812;11.762;2024-03-17T13:20:16;6.18;;;3.97;;
22160;SDS011;49035;48.812;11.762;2024-03-17T13:22:42;5.72;;;4.95;;
22160;SDS011;49035;48.812;11.762;2024-03-17T13:25:13;5.18;;;4.40;;
22160;SDS011;49035;48.812;11.762;2024-03-17T13:27:44;6.85;;;4.53;;
22160;SDS011;49035;48.812;11.762;2024-03-17T13:30:13;4.97;;;3.80;;
22160;SDS011;49035;48.812;11.762;2024-03-17T13:32:40;5.90;;;3.90;;
22160;SDS011;49035;48.812;11.762;2024-03-17T13:35:17;4.57;;;3.72;;
22160;SDS011;49035;48.812;11.762;2024-03-17T13:37:47;6.50;;;4.28;;
22160;SDS011;49035;48.812;11.762;2024-03-17T13:40:14;6.20;;;4.72;;
22160;SDS011;49035;48.812;11.762;2024-03-17T13:42:44;5.82;;;4.00;;
22160;SDS011;49035;48.812;11.762;2024-03-17T13:45:11;5.97;;;3.83;;
22160;SDS011;49035;48.812;11.762;2024-03-17T13:47:37;7.25;;;3.88;;
22160;SDS011;49035;48.812;11.762;2024-03-17T13:50:06;6.07;;;3.70;;
22160;SDS011;49035;48.812;11.762;2024-03-17T13:52:36;5.43;;;3.67;;
22160;SDS011;49035;48.812;11.762;2024-03-17T13:55:03;6.70;;;3.90;;
22160;SDS011;49035;48.812;11.762;2024-03-17T13:57:31;5.15;;;4.00;;
22160;SDS011;49035;48.812;11.762;2024-03-17T13:59:58;5.78;;;4.32;;
22160;SDS011;49035;48.812;11.762;2024-03-17T14:02:23;5.95;;;3.65;;
22160;SDS011;49035;48.812;11.762;2024-03-17T14:04:49;4.07;;;3.67;;
22160;SDS011;49035;48.812;11.762;2024-03-17T14:07:14;6.28;;;4.00;;
22160;SDS011;49035;48.812;11.762;2024-03-17T14:09:40;7.40;;;4.03;;
22160;SDS011;49035;48.812;11.762;2024-03-17T14:12:09;5.43;;;4.00;;
22160;SDS011;49035;48.812;11.762;2024-03-17T14:14:35;7.35;;;4.15;;
22160;SDS011;49035;48.812;11.762;2024-03-17T14:17:00;6.50;;;4.45;;
22160;SDS011;49035;48.812;11.762;2024-03-17T14:19:26;7.30;;;4.68;;
22160;SDS011;49035;48.812;11.762;2024-03-17T14:21:51;6.88;;;5.00;;
22160;SDS011;49035;48.812;11.762;2024-03-17T14:24:17;6.13;;;4.40;;
22160;SDS011;49035;48.812;11.762;2024-03-17T14:26:43;4.88;;;4.40;;
22160;SDS011;49035;48.812;11.762;2024-03-17T14:29:09;7.47;;;4.65;;
22160;SDS011;49035;48.812;11.762;2024-03-17T14:31:34;5.30;;;4.78;;
22160;SDS011;49035;48.812;11.762;2024-03-17T14:34:05;7.72;;;4.78;;
22160;SDS011;49035;48.812;11.762;2024-03-17T14:36:33;6.70;;;5.00;;
22160;SDS011;49035;48.812;11.762;2024-03-17T14:38:59;5.30;;;4.80;;
22160;SDS011;49035;48.812;11.762;2024-03-17T14:41:29;7.38;;;5.38;;
22160;SDS011;49035;48.812;11.762;2024-03-17T14:43:55;4.95;;;4.18;;
22160;SDS011;49035;48.812;11.762;2024-03-17T14:46:22;6.32;;;4.63;;
22160;SDS011;49035;48.812;11.762;2024-03-17T14:48:48;5.20;;;4.68;;
22160;SDS011;49035;48.812;11.762;2024-03-17T14:51:15;6.53;;;4.72;;
22160;SDS011;49035;48.812;11.762;2024-03-17T14:53:46;5.35;;;4.85;;
22160;SDS011;49035;48.812;11.762;2024-03-17T14:56:17;5.72;;;5.05;;
22160;SDS011;49035;48.812;11.762;2024-03-17T14:58:43;5.38;;;4.68;;
22160;SDS011;49035;48.812;11.762;2024-03-17T15:01:11;5.35;;;4.85;;
22160;SDS011;49035;48.812;11.762;2024-03-17T15:03:36;5.75;;;5.15;;
22160;SDS011;49035;48.812;11.762;2024-03-17T15:06:02;5.53;;;4.93;;
22160;SDS011;49035;48.812;11.762;2024-03-17T15:08:32;6.03;;;5.22;;
22160;SDS011;49035;48.812;11.762;2024-03-17T15:10:58;6.65;;;4.82;;